LICR

Reggio Calabria Airport

Reggio Calabria, Italy
TAF LICR 230500Z 2306/2406 VRB06KT 9999 SCT030 BECMG 2320/2322 18012KT TEMPO 2400/2406 4000 SHRA
Issued Valid From Valid To
Jan-23 @ 05:00 UTC
(2 hours ago)
Jan-23 @ 06:00 UTC
(an hour ago)
Jan-24 @ 06:00 UTC
(in 23 hours)
Jan-23 @ 06:00 to Jan-23 @ 20:00
TAF LICR 230500Z 2306/2406 VRB06KT 9999 SCT030
Wind Visibility Clouds
Variable at 6 knots 10,000+ meters
  • Scattered at 3,000' AGL
Becoming Jan-23 @ 20:00 to Jan-24 @ 06:00
BECMG 2320/2322 18012KT
Wind Visibility Clouds
180° at 12 knots 10,000+ meters
  • Scattered at 3,000' AGL
Temporary Jan-24 @ 00:00 to Jan-24 @ 06:00
TEMPO 2400/2406 4000 SHRA
Visibility Conditions
4,007 meters
  • Rain
TAF LICR 230500Z 2306/2406 VRB06KT 9999 SCT030 BECMG 2320/2322 18012KT TEMPO 2400/2406 4000 SHRA
Issued Jan-23 @ 05:00 UTC
(2 hours ago)
Valid From Jan-23 @ 06:00 UTC
(an hour ago)
Valid To Jan-24 @ 06:00 UTC
(in 23 hours)
Jan-23 @ 06:00 - Jan-23 @ 20:00
Wind Visibility
Variable at 6 knots 10,000+ meters
Clouds
  • Scattered at 3,000' AGL
Becoming Jan-23 @ 20:00 - Jan-24 @ 06:00
Wind Visibility
180° at 12 knots 10,000+ meters
Clouds
  • Scattered at 3,000' AGL
Temporary Jan-24 @ 00:00 - Jan-24 @ 06:00
Conditions
  • Rain